Time;durP1;ratioP1;P1;durP2;ratioP2;P2;SDS_P1;SDS_P2;PMS_P1;PMS_P2;Temp;Humidity;BMP_temperature;BMP_pressure;BME280_temperature;BME280_humidity;BME280_pressure;Samples;Min_cycle;Max_cycle;Signal;HPM_P1;HPM_P2
2022/09/03 00:00:51;;;;;;;1.33;0.50;;;;;;;;;;5002331;28;20047;-83
2022/09/03 00:03:36;;;;;;;0.80;0.43;;;;;;;;;;5000492;28;20116;-83
2022/09/03 00:06:22;;;;;;;1.80;0.70;;;;;;;;;;4984382;28;20057;-83
2022/09/03 00:09:10;;;;;;;0.98;0.57;;;;;;;;;;4984039;28;20518;-83
2022/09/03 00:11:54;;;;;;;2.50;0.52;;;;;;;;;;4995563;28;20060;-83
2022/09/03 00:14:27;;;;;;;1.00;0.52;;;;;;;;;;5032403;28;20144;-83
2022/09/03 00:17:21;;;;;;;1.77;0.50;;;;;;;;;;4984296;28;20403;-83
2022/09/03 00:19:54;;;;;;;2.67;0.50;;;;;;;;;;4997262;28;20049;-83
2022/09/03 00:22:40;;;;;;;1.02;0.50;;;;;;;;;;4999701;28;20086;-83
2022/09/03 00:25:10;;;;;;;0.98;0.40;;;;;;;;;;5001309;28;20033;-83
2022/09/03 00:27:37;;;;;;;1.77;0.55;;;;;;;;;;5000426;28;20037;-83
2022/09/03 00:30:05;;;;;;;1.17;0.50;;;;;;;;;;4983509;28;20404;-84
2022/09/03 00:32:46;;;;;;;1.45;0.70;;;;;;;;;;4983094;28;20052;-83
2022/09/03 00:35:30;;;;;;;1.67;0.50;;;;;;;;;;4984489;28;20033;-83
2022/09/03 00:37:55;;;;;;;1.83;0.50;;;;;;;;;;4983519;28;20041;-83
2022/09/03 00:40:47;;;;;;;2.30;0.70;;;;;;;;;;4999781;28;20029;-83
2022/09/03 00:43:21;;;;;;;1.00;0.57;;;;;;;;;;4987524;28;20057;-84
2022/09/03 00:46:17;;;;;;;1.38;0.50;;;;;;;;;;4966425;28;20045;-83
2022/09/03 00:49:19;;;;;;;2.38;0.68;;;;;;;;;;4978582;28;20524;-83
2022/09/03 00:51:52;;;;;;;;;;;;;;;;;;5031846;28;20514;-84
2022/09/03 00:55:08;;;;;;;2.03;0.73;;;;;;;;;;5032232;28;19913;-83
2022/09/03 00:57:57;;;;;;;1.98;0.68;;;;;;;;;;4995019;28;20484;-84
2022/09/03 01:00:23;;;;;;;0.98;0.40;;;;;;;;;;5017615;28;20073;-83
2022/09/03 01:03:21;;;;;;;1.30;0.47;;;;;;;;;;4999116;28;20492;-83
2022/09/03 01:06:21;;;;;;;2.20;0.65;;;;;;;;;;4999341;28;20400;-84
2022/09/03 01:09:02;;;;;;;1.63;0.77;;;;;;;;;;5001775;28;20032;-83
2022/09/03 01:11:50;;;;;;;0.88;0.40;;;;;;;;;;4999488;28;20033;-84
2022/09/03 01:14:37;;;;;;;1.40;0.38;;;;;;;;;;5014946;28;20191;-83
2022/09/03 01:17:25;;;;;;;0.82;0.40;;;;;;;;;;5014786;28;20046;-83
2022/09/03 01:20:08;;;;;;;1.13;0.40;;;;;;;;;;4999662;28;20136;-83
2022/09/03 01:23:06;;;;;;;1.90;0.60;;;;;;;;;;5031631;28;20045;-83
2022/09/03 01:25:54;;;;;;;1.00;0.52;;;;;;;;;;5014872;28;20068;-83
2022/09/03 01:28:33;;;;;;;1.88;0.80;;;;;;;;;;5031653;28;20037;-83
2022/09/03 01:31:17;;;;;;;2.63;0.80;;;;;;;;;;5015017;28;20032;-83
2022/09/03 01:33:48;;;;;;;1.80;0.47;;;;;;;;;;4984159;28;20044;-83
2022/09/03 01:36:27;;;;;;;1.17;0.52;;;;;;;;;;5031598;28;20037;-83
2022/09/03 01:38:55;;;;;;;1.17;0.70;;;;;;;;;;4998105;28;20515;-84
2022/09/03 01:42:14;;;;;;;0.98;0.32;;;;;;;;;;4982127;28;20037;-83
2022/09/03 01:45:18;;;;;;;0.93;0.30;;;;;;;;;;4999925;28;20042;-83
2022/09/03 01:48:02;;;;;;;1.27;0.60;;;;;;;;;;5015076;28;20034;-83
2022/09/03 01:50:56;;;;;;;2.22;0.60;;;;;;;;;;5010756;28;20508;-83
2022/09/03 01:53:45;;;;;;;1.80;0.60;;;;;;;;;;5004505;28;20045;-83
2022/09/03 01:56:46;;;;;;;1.40;0.60;;;;;;;;;;5027839;28;20099;-83
2022/09/03 01:59:27;;;;;;;1.15;0.50;;;;;;;;;;5027794;28;20030;-83
2022/09/03 02:01:58;;;;;;;1.63;0.50;;;;;;;;;;5027358;28;20037;-83
2022/09/03 02:04:25;;;;;;;1.50;0.50;;;;;;;;;;5010930;28;20585;-83
2022/09/03 02:06:51;;;;;;;1.58;0.50;;;;;;;;;;5011067;28;20575;-83
2022/09/03 02:09:16;;;;;;;1.00;0.40;;;;;;;;;;5010743;28;20057;-83
2022/09/03 02:11:42;;;;;;;1.02;0.50;;;;;;;;;;5011051;28;20061;-83
2022/09/03 02:14:12;;;;;;;1.52;0.50;;;;;;;;;;5011055;28;20088;-83
2022/09/03 02:16:38;;;;;;;1.13;0.50;;;;;;;;;;5010769;28;20045;-83
2022/09/03 02:19:09;;;;;;;1.35;0.43;;;;;;;;;;5010674;28;20117;-83
2022/09/03 02:21:37;;;;;;;0.77;0.50;;;;;;;;;;4978288;28;20124;-83
2022/09/03 02:24:03;;;;;;;1.52;0.80;;;;;;;;;;5010732;28;20129;-83
2022/09/03 02:26:28;;;;;;;1.83;0.50;;;;;;;;;;4981373;28;20029;-83
2022/09/03 02:28:54;;;;;;;1.30;0.43;;;;;;;;;;5013724;28;20037;-83
2022/09/03 02:31:20;;;;;;;0.85;0.47;;;;;;;;;;4997786;28;20046;-83
2022/09/03 02:33:46;;;;;;;1.52;0.40;;;;;;;;;;4997282;28;20038;-83
2022/09/03 02:36:13;;;;;;;3.35;0.68;;;;;;;;;;5013890;28;20034;-83
2022/09/03 02:38:42;;;;;;;1.23;0.43;;;;;;;;;;5029882;28;20055;-83
2022/09/03 02:41:08;;;;;;;1.20;0.60;;;;;;;;;;4997601;28;20037;-83
2022/09/03 02:43:44;;;;;;;1.30;0.60;;;;;;;;;;4997236;28;20033;-83
2022/09/03 02:46:14;;;;;;;1.15;0.50;;;;;;;;;;4998418;28;20083;-83
2022/09/03 02:48:39;;;;;;;0.82;0.43;;;;;;;;;;5013690;28;20030;-83
2022/09/03 02:51:05;;;;;;;1.38;0.50;;;;;;;;;;5010624;28;20512;-83
2022/09/03 02:53:30;;;;;;;0.90;0.40;;;;;;;;;;5009982;28;20042;-83
2022/09/03 02:56:00;;;;;;;1.35;0.60;;;;;;;;;;4994469;28;20034;-83
2022/09/03 02:58:25;;;;;;;1.60;0.50;;;;;;;;;;5014430;28;20045;-83
2022/09/03 03:00:51;;;;;;;1.83;0.68;;;;;;;;;;5031036;28;20038;-83
2022/09/03 03:03:17;;;;;;;1.75;0.40;;;;;;;;;;4997613;28;20033;-84
2022/09/03 03:05:43;;;;;;;2.00;0.80;;;;;;;;;;5014684;28;20578;-83
2022/09/03 03:08:13;;;;;;;1.65;0.70;;;;;;;;;;5030662;28;20060;-84
2022/09/03 03:10:40;;;;;;;1.38;0.52;;;;;;;;;;4997813;28;20030;-83
2022/09/03 03:13:05;;;;;;;1.25;0.52;;;;;;;;;;4997864;28;20033;-83
2022/09/03 03:15:31;;;;;;;2.13;0.90;;;;;;;;;;5030691;28;20148;-83
2022/09/03 03:17:56;;;;;;;1.92;0.65;;;;;;;;;;5013724;28;20084;-83
2022/09/03 03:20:22;;;;;;;1.45;0.60;;;;;;;;;;4997767;28;20034;-83
2022/09/03 03:22:47;;;;;;;2.28;0.98;;;;;;;;;;4996530;28;20084;-83
2022/09/03 03:25:13;;;;;;;4.93;0.80;;;;;;;;;;5031655;28;20053;-83
2022/09/03 03:27:41;;;;;;;1.33;0.55;;;;;;;;;;5000988;28;20112;-83
2022/09/03 03:30:09;;;;;;;1.48;0.47;;;;;;;;;;5017686;28;20045;-83
2022/09/03 03:32:35;;;;;;;1.17;0.63;;;;;;;;;;5000982;28;20168;-83
2022/09/03 03:35:00;;;;;;;1.48;0.50;;;;;;;;;;4984401;28;20041;-83
2022/09/03 03:37:26;;;;;;;1.15;0.50;;;;;;;;;;4998902;28;20553;-83
2022/09/03 03:39:51;;;;;;;1.17;0.60;;;;;;;;;;5015353;28;20041;-83
2022/09/03 03:42:17;;;;;;;2.10;0.77;;;;;;;;;;5015373;28;20053;-84
2022/09/03 03:44:42;;;;;;;3.75;1.50;;;;;;;;;;4999740;28;20087;-83
2022/09/03 03:47:08;;;;;;;1.90;0.65;;;;;;;;;;4984289;28;20128;-83
2022/09/03 03:49:33;;;;;;;1.30;0.60;;;;;;;;;;5015783;28;20049;-83
2022/09/03 03:51:59;;;;;;;1.88;0.50;;;;;;;;;;5000076;28;20025;-83
2022/09/03 03:54:24;;;;;;;1.40;0.50;;;;;;;;;;5000000;28;20076;-83
2022/09/03 03:56:50;;;;;;;1.80;0.60;;;;;;;;;;5017025;28;20229;-83
2022/09/03 03:59:15;;;;;;;2.47;0.75;;;;;;;;;;5000124;28;20037;-83
2022/09/03 04:01:40;;;;;;;1.30;0.50;;;;;;;;;;5000130;28;20527;-83
2022/09/03 04:04:06;;;;;;;1.73;0.75;;;;;;;;;;4999509;28;20045;-83
2022/09/03 04:06:31;;;;;;;2.65;0.98;;;;;;;;;;5016155;28;20041;-83
2022/09/03 04:08:57;;;;;;;0.68;0.38;;;;;;;;;;4998580;28;20064;-83
2022/09/03 04:11:23;;;;;;;1.65;0.70;;;;;;;;;;4984078;28;20029;-83
2022/09/03 04:13:49;;;;;;;1.10;0.40;;;;;;;;;;4983873;28;20053;-83
2022/09/03 04:16:19;;;;;;;1.95;0.55;;;;;;;;;;5016656;28;20058;-83
2022/09/03 04:18:44;;;;;;;1.88;0.50;;;;;;;;;;5016240;28;20038;-83
2022/09/03 04:21:12;;;;;;;2.05;0.80;;;;;;;;;;4999392;28;20042;-83
2022/09/03 04:23:39;;;;;;;1.67;1.17;;;;;;;;;;4982608;28;20038;-83
2022/09/03 04:26:04;;;;;;;1.95;0.60;;;;;;;;;;4995595;28;20040;-83
2022/09/03 04:28:30;;;;;;;2.08;0.55;;;;;;;;;;4996742;28;20030;-83
2022/09/03 04:31:02;;;;;;;1.50;0.52;;;;;;;;;;4995972;28;20034;-83
2022/09/03 04:33:29;;;;;;;1.23;0.60;;;;;;;;;;4996380;28;20041;-84
2022/09/03 04:36:15;;;;;;;0.95;0.40;;;;;;;;;;4996297;28;20041;-83
2022/09/03 04:38:42;;;;;;;1.95;0.77;;;;;;;;;;4978436;28;20612;-83
2022/09/03 04:41:13;;;;;;;1.40;0.70;;;;;;;;;;4997633;28;20021;-83
2022/09/03 04:43:41;;;;;;;0.98;0.40;;;;;;;;;;5015556;28;20500;-83
2022/09/03 04:46:06;;;;;;;1.10;0.50;;;;;;;;;;4983758;28;20405;-83
2022/09/03 04:48:33;;;;;;;1.30;0.60;;;;;;;;;;5015800;28;20038;-84
2022/09/03 04:51:04;;;;;;;1.90;0.80;;;;;;;;;;5028276;28;20523;-83
2022/09/03 04:53:30;;;;;;;2.05;0.60;;;;;;;;;;5028763;28;20034;-83
2022/09/03 04:55:55;;;;;;;2.03;0.60;;;;;;;;;;5012156;28;20041;-83
2022/09/03 04:58:22;;;;;;;0.98;0.50;;;;;;;;;;4996123;28;20038;-83
2022/09/03 05:00:48;;;;;;;2.20;0.80;;;;;;;;;;5012276;28;20037;-83
2022/09/03 05:03:14;;;;;;;1.35;0.70;;;;;;;;;;4995425;28;20049;-83
2022/09/03 05:05:41;;;;;;;1.02;0.50;;;;;;;;;;5028706;28;20113;-84
2022/09/03 05:08:06;;;;;;;1.70;0.80;;;;;;;;;;5028349;28;20040;-83
2022/09/03 05:10:32;;;;;;;0.85;0.47;;;;;;;;;;4995704;28;20034;-83
2022/09/03 05:13:02;;;;;;;1.70;0.60;;;;;;;;;;4995689;28;20034;-84
2022/09/03 05:15:28;;;;;;;1.05;0.60;;;;;;;;;;5012231;28;20140;-82
2022/09/03 05:18:01;;;;;;;2.30;0.43;;;;;;;;;;4994131;28;20133;-82
2022/09/03 05:20:28;;;;;;;5.43;0.80;;;;;;;;;;4993073;28;20038;-83
2022/09/03 05:22:54;;;;;;;4.88;1.23;;;;;;;;;;4993415;28;20038;-87
2022/09/03 05:25:20;;;;;;;1.55;0.50;;;;;;;;;;5015214;28;20385;-85
2022/09/03 05:27:45;;;;;;;2.42;0.82;;;;;;;;;;5015996;28;20754;-86
2022/09/03 05:30:11;;;;;;;3.58;0.90;;;;;;;;;;5018279;28;20159;-85
2022/09/03 05:32:37;;;;;;;3.45;1.02;;;;;;;;;;5016748;28;20508;-87
2022/09/03 05:35:06;;;;;;;3.35;0.85;;;;;;;;;;5006214;28;20029;-86
2022/09/03 05:37:34;;;;;;;4.13;1.20;;;;;;;;;;5021239;28;20076;-84
2022/09/03 05:39:59;;;;;;;4.32;1.02;;;;;;;;;;5020050;28;20032;-85
2022/09/03 05:42:27;;;;;;;8.40;1.15;;;;;;;;;;5037496;28;20037;-85
2022/09/03 05:44:53;;;;;;;8.50;1.08;;;;;;;;;;5008748;28;20037;-84
2022/09/03 05:47:19;;;;;;;5.15;1.55;;;;;;;;;;5000361;28;20030;-85
2022/09/03 05:49:44;;;;;;;4.05;1.13;;;;;;;;;;5016761;28;20400;-83
2022/09/03 05:52:12;;;;;;;7.25;1.52;;;;;;;;;;4997020;28;20044;-84
2022/09/03 05:54:38;;;;;;;3.00;0.93;;;;;;;;;;4998171;28;20049;-83
2022/09/03 05:57:04;;;;;;;3.25;1.20;;;;;;;;;;4981691;28;20072;-83
2022/09/03 05:59:30;;;;;;;2.80;0.80;;;;;;;;;;4982118;28;20033;-83
2022/09/03 06:01:57;;;;;;;3.38;1.02;;;;;;;;;;4981260;28;20065;-83
2022/09/03 06:04:22;;;;;;;5.93;1.27;;;;;;;;;;4997978;28;20025;-82
2022/09/03 06:06:48;;;;;;;4.57;1.00;;;;;;;;;;4998177;28;20376;-83
2022/09/03 06:09:18;;;;;;;5.32;1.38;;;;;;;;;;4998085;28;20030;-83
2022/09/03 06:11:44;;;;;;;9.05;1.50;;;;;;;;;;4982086;28;20436;-83
2022/09/03 06:14:11;;;;;;;7.10;1.45;;;;;;;;;;4981548;28;20033;-86
2022/09/03 06:16:38;;;;;;;3.33;1.08;;;;;;;;;;4981820;28;20069;-87
2022/09/03 06:19:06;;;;;;;4.45;1.15;;;;;;;;;;4981824;28;20120;-86
2022/09/03 06:21:31;;;;;;;3.85;1.20;;;;;;;;;;4998504;28;20053;-86
2022/09/03 06:23:57;;;;;;;3.58;1.00;;;;;;;;;;4997940;28;20033;-86
2022/09/03 06:26:23;;;;;;;4.05;1.00;;;;;;;;;;4997695;28;20041;-84
2022/09/03 06:28:48;;;;;;;2.05;0.70;;;;;;;;;;4995806;28;20061;-85
2022/09/03 06:31:15;;;;;;;3.08;1.08;;;;;;;;;;5012798;28;20060;-85
2022/09/03 06:33:43;;;;;;;3.83;0.82;;;;;;;;;;4980893;28;20037;-85
2022/09/03 06:36:14;;;;;;;5.07;0.75;;;;;;;;;;4982686;28;20422;-86
2022/09/03 06:38:41;;;;;;;6.25;1.25;;;;;;;;;;4981578;28;20377;-85
2022/09/03 06:41:14;;;;;;;2.15;0.90;;;;;;;;;;4980967;28;20486;-86
2022/09/03 06:43:40;;;;;;;4.80;1.00;;;;;;;;;;4997803;28;20041;-85
2022/09/03 06:46:12;;;;;;;2.70;0.77;;;;;;;;;;4996543;28;20065;-87
2022/09/03 06:48:38;;;;;;;;;;;;;;;;;;5012608;28;20416;-85
2022/09/03 06:51:26;;;;;;;5.70;1.00;;;;;;;;;;5008715;28;20004;-86
2022/09/03 06:53:53;;;;;;;3.17;0.80;;;;;;;;;;5009619;28;20034;-81
2022/09/03 06:56:25;;;;;;;1.98;0.75;;;;;;;;;;4993548;28;20037;-82
2022/09/03 06:58:50;;;;;;;2.65;0.90;;;;;;;;;;5009910;28;20034;-82
2022/09/03 07:01:20;;;;;;;2.63;0.93;;;;;;;;;;4977625;28;20512;-83
2022/09/03 07:03:47;;;;;;;3.38;1.05;;;;;;;;;;5009919;28;20091;-81
2022/09/03 07:06:17;;;;;;;5.88;1.50;;;;;;;;;;4993251;28;20589;-82
2022/09/03 07:08:43;;;;;;;2.97;1.40;;;;;;;;;;5013172;28;20037;-82
2022/09/03 07:11:18;;;;;;;3.33;1.48;;;;;;;;;;5010932;28;20034;-83
2022/09/03 07:13:44;;;;;;;3.05;1.52;;;;;;;;;;4993577;28;20057;-83
2022/09/03 07:16:19;;;;;;;4.63;1.92;;;;;;;;;;4993894;28;20034;-83
2022/09/03 07:18:45;;;;;;;3.80;1.80;;;;;;;;;;4993908;28;20038;-83
2022/09/03 07:21:12;;;;;;;6.20;1.75;;;;;;;;;;4993811;28;20609;-83
2022/09/03 07:23:38;;;;;;;10.43;2.10;;;;;;;;;;4993542;28;20029;-83
2022/09/03 07:26:08;;;;;;;3.72;1.83;;;;;;;;;;5013368;28;20026;-83
2022/09/03 07:28:35;;;;;;;4.05;1.90;;;;;;;;;;4996760;28;20363;-82
2022/09/03 07:31:13;;;;;;;3.08;1.90;;;;;;;;;;5013226;28;20157;-82
2022/09/03 07:33:39;;;;;;;3.33;1.98;;;;;;;;;;4996781;28;20033;-83
2022/09/03 07:36:06;;;;;;;3.53;1.90;;;;;;;;;;5029887;28;20045;-82
2022/09/03 07:38:35;;;;;;;4.70;2.47;;;;;;;;;;4996912;28;20029;-82
2022/09/03 07:41:02;;;;;;;4.32;1.83;;;;;;;;;;4996700;28;20026;-82
2022/09/03 07:43:28;;;;;;;6.43;3.50;;;;;;;;;;4999270;28;20041;-81
2022/09/03 07:45:55;;;;;;;7.90;4.18;;;;;;;;;;5001039;28;20129;-83
2022/09/03 07:48:21;;;;;;;9.50;3.42;;;;;;;;;;4981475;28;20053;-82
2022/09/03 07:50:48;;;;;;;5.88;3.65;;;;;;;;;;4976386;28;20388;-82
2022/09/03 07:53:16;;;;;;;7.47;4.55;;;;;;;;;;4984378;28;20030;-82
2022/09/03 07:55:46;;;;;;;8.00;3.80;;;;;;;;;;4984421;28;20041;-81
2022/09/03 07:58:13;;;;;;;10.05;4.85;;;;;;;;;;5000518;28;20021;-82
2022/09/03 08:00:39;;;;;;;8.85;4.10;;;;;;;;;;5000630;28;20049;-83
2022/09/03 08:03:07;;;;;;;13.32;5.22;;;;;;;;;;4984002;28;20045;-83
2022/09/03 08:05:35;;;;;;;10.05;4.75;;;;;;;;;;4986892;28;20041;-84
2022/09/03 08:08:04;;;;;;;16.75;5.97;;;;;;;;;;5003340;28;20033;-85
2022/09/03 08:10:30;;;;;;;11.02;5.45;;;;;;;;;;5004661;28;20570;-83
2022/09/03 08:12:58;;;;;;;13.45;5.63;;;;;;;;;;5005050;28;20037;-91
2022/09/03 08:15:26;;;;;;;11.65;5.40;;;;;;;;;;4997370;28;20045;-90
2022/09/03 08:17:54;;;;;;;9.10;4.70;;;;;;;;;;5008643;28;20045;-89
2022/09/03 08:20:22;;;;;;;14.73;6.07;;;;;;;;;;5008144;28;20028;-88
2022/09/03 08:22:48;;;;;;;10.05;5.25;;;;;;;;;;5011239;28;20034;-91
2022/09/03 08:25:18;;;;;;;9.95;5.22;;;;;;;;;;5009134;28;20033;-92
2022/09/03 08:27:48;;;;;;;8.30;5.00;;;;;;;;;;5004405;28;20060;-88
2022/09/03 08:30:14;;;;;;;7.60;4.50;;;;;;;;;;5007297;28;20029;-88
2022/09/03 08:32:42;;;;;;;14.05;4.95;;;;;;;;;;5011067;28;20034;-88
2022/09/03 08:35:09;;;;;;;9.43;4.13;;;;;;;;;;4994153;28;20063;-87
2022/09/03 08:37:38;;;;;;;7.55;4.10;;;;;;;;;;5009714;28;20043;-91
2022/09/03 08:40:12;;;;;;;11.40;4.22;;;;;;;;;;5011259;28;20044;-94
2022/09/03 08:42:45;;;;;;;5.78;3.50;;;;;;;;;;5025560;28;20201;-88
2022/09/03 08:45:15;;;;;;;7.57;3.90;;;;;;;;;;5025932;28;20045;-90
2022/09/03 08:47:49;;;;;;;8.20;3.33;;;;;;;;;;4998089;28;20045;-87
2022/09/03 08:50:31;;;;;;;5.07;2.88;;;;;;;;;;5011014;28;20038;-88
2022/09/03 08:53:00;;;;;;;14.50;3.70;;;;;;;;;;4992070;28;20022;-87
2022/09/03 08:55:43;;;;;;;9.45;5.22;;;;;;;;;;4999398;28;20132;-88
2022/09/03 08:58:17;;;;;;;9.57;4.25;;;;;;;;;;5001707;28;20114;-86
2022/09/03 09:01:03;;;;;;;8.35;4.65;;;;;;;;;;4999760;28;20152;-85
2022/09/03 09:03:37;;;;;;;6.53;3.15;;;;;;;;;;4985069;28;20155;-86
2022/09/03 09:06:14;;;;;;;5.68;2.47;;;;;;;;;;5016096;28;20033;-88
2022/09/03 09:08:47;;;;;;;4.20;2.13;;;;;;;;;;5016079;28;20036;-87
2022/09/03 09:11:37;;;;;;;3.50;1.73;;;;;;;;;;4999907;28;20034;-87
2022/09/03 09:14:24;;;;;;;2.40;1.50;;;;;;;;;;5016440;28;20040;-88
2022/09/03 09:17:14;;;;;;;3.70;1.17;;;;;;;;;;5001142;28;20049;-87
2022/09/03 09:19:52;;;;;;;2.80;1.20;;;;;;;;;;5001198;28;20389;-86
2022/09/03 09:22:30;;;;;;;2.72;1.40;;;;;;;;;;5015814;28;20037;-86
2022/09/03 09:24:56;;;;;;;2.88;1.20;;;;;;;;;;4983118;28;20040;-86
2022/09/03 09:27:25;;;;;;;5.03;1.92;;;;;;;;;;4983398;28;20041;-87
2022/09/03 09:29:53;;;;;;;2.03;1.48;;;;;;;;;;5000038;28;20033;-87
2022/09/03 09:32:19;;;;;;;3.78;1.52;;;;;;;;;;4982722;28;20040;-86
2022/09/03 09:34:46;;;;;;;2.75;1.50;;;;;;;;;;4983175;28;20116;-88
2022/09/03 09:37:14;;;;;;;3.38;1.75;;;;;;;;;;4999758;28;20045;-87
2022/09/03 09:39:40;;;;;;;3.75;1.27;;;;;;;;;;4983241;28;20403;-87
2022/09/03 09:42:08;;;;;;;2.72;1.40;;;;;;;;;;4983311;28;20034;-87
2022/09/03 09:44:39;;;;;;;4.50;1.13;;;;;;;;;;4999436;28;20034;-86
2022/09/03 09:47:15;;;;;;;3.17;1.00;;;;;;;;;;4999408;28;20526;-87
2022/09/03 09:49:58;;;;;;;4.20;1.55;;;;;;;;;;5015110;28;20030;-86
2022/09/03 09:52:27;;;;;;;3.00;1.23;;;;;;;;;;4998840;28;20509;-86
2022/09/03 09:54:53;;;;;;;2.53;1.42;;;;;;;;;;4999225;28;20037;-87
2022/09/03 09:57:23;;;;;;;2.78;1.10;;;;;;;;;;4998716;28;20040;-86
2022/09/03 10:00:01;;;;;;;2.10;1.40;;;;;;;;;;4999236;28;20053;-87
2022/09/03 10:02:32;;;;;;;3.55;1.52;;;;;;;;;;4998484;28;20048;-86
2022/09/03 10:05:01;;;;;;;2.58;1.52;;;;;;;;;;4982951;28;20033;-85
2022/09/03 10:07:31;;;;;;;2.97;1.65;;;;;;;;;;4997831;28;20076;-86
2022/09/03 10:10:28;;;;;;;3.95;1.60;;;;;;;;;;4999174;28;20087;-86
2022/09/03 10:13:11;;;;;;;2.45;1.30;;;;;;;;;;4985525;28;20042;-86
2022/09/03 10:15:50;;;;;;;2.90;1.13;;;;;;;;;;4998793;28;20124;-88
2022/09/03 10:18:53;;;;;;;11.15;8.23;;;;;;;;;;4998614;28;20041;-89
2022/09/03 10:21:36;;;;;;;8.48;5.35;;;;;;;;;;5015173;28;20034;-88
2022/09/03 10:24:15;;;;;;;6.82;4.25;;;;;;;;;;5015052;28;20407;-86
2022/09/03 10:26:45;;;;;;;4.93;2.72;;;;;;;;;;5022489;28;20041;-87
2022/09/03 10:29:16;;;;;;;10.88;3.40;;;;;;;;;;5006223;28;20038;-88
2022/09/03 10:31:52;;;;;;;4.95;2.67;;;;;;;;;;5007268;28;20064;-87
2022/09/03 10:34:23;;;;;;;3.60;2.45;;;;;;;;;;5006035;28;20188;-87
2022/09/03 10:36:58;;;;;;;3.28;1.85;;;;;;;;;;5004824;28;20117;-88
2022/09/03 10:40:01;;;;;;;3.13;1.40;;;;;;;;;;5023613;28;20037;-88
2022/09/03 10:42:59;;;;;;;4.53;1.90;;;;;;;;;;5038405;28;20032;-90
2022/09/03 10:45:51;;;;;;;5.57;2.08;;;;;;;;;;5030640;28;20045;-87
2022/09/03 10:48:39;;;;;;;3.22;1.75;;;;;;;;;;5034706;28;20044;-90
2022/09/03 10:51:10;;;;;;;4.47;1.70;;;;;;;;;;5031423;28;20044;-87
2022/09/03 10:54:19;;;;;;;2.05;1.38;;;;;;;;;;4994903;28;20129;-91
2022/09/03 10:57:00;;;;;;;2.88;1.42;;;;;;;;;;4994154;28;20072;-92
2022/09/03 11:00:03;;;;;;;2.38;1.30;;;;;;;;;;5042970;28;20040;-91
2022/09/03 11:02:41;;;;;;;2.53;1.65;;;;;;;;;;5010886;28;20036;-89
2022/09/03 11:05:34;;;;;;;2.47;1.33;;;;;;;;;;5042757;28;20037;-90
2022/09/03 11:08:11;;;;;;;3.53;1.67;;;;;;;;;;5009662;28;20034;-89
2022/09/03 11:10:43;;;;;;;3.08;1.80;;;;;;;;;;5009703;28;20145;-88
2022/09/03 11:13:13;;;;;;;;;;;;;;;;;;4990391;28;20048;-87
2022/09/03 11:15:50;;;;;;;1.73;1.20;;;;;;;;;;4998287;28;19944;-87
2022/09/03 11:18:41;;;;;;;2.83;1.60;;;;;;;;;;5003338;28;20049;-88
2022/09/03 11:21:13;;;;;;;3.60;1.60;;;;;;;;;;5003323;28;20087;-88
2022/09/03 11:24:12;;;;;;;2.03;1.42;;;;;;;;;;4985084;28;20038;-86
2022/09/03 11:26:39;;;;;;;2.70;1.13;;;;;;;;;;4996717;28;20389;-86
2022/09/03 11:29:11;;;;;;;3.08;1.38;;;;;;;;;;5002340;28;20468;-88
2022/09/03 11:31:58;;;;;;;2.97;1.42;;;;;;;;;;5001285;28;20035;-87
2022/09/03 11:34:29;;;;;;;2.28;1.60;;;;;;;;;;5002003;28;20033;-87
2022/09/03 11:37:25;;;;;;;3.13;1.47;;;;;;;;;;5001463;28;20187;-89
2022/09/03 11:40:18;;;;;;;2.25;1.65;;;;;;;;;;5002255;28;20102;-88
2022/09/03 11:42:47;;;;;;;2.08;1.50;;;;;;;;;;5033140;28;20107;-88
2022/09/03 11:45:26;;;;;;;2.70;1.30;;;;;;;;;;5003457;28;20037;-88
2022/09/03 11:47:52;;;;;;;3.30;1.33;;;;;;;;;;5000493;28;20057;-88
2022/09/03 11:50:21;;;;;;;2.05;1.50;;;;;;;;;;4998836;28;20080;-88
2022/09/03 11:52:53;;;;;;;2.47;1.40;;;;;;;;;;5016565;28;20132;-89
2022/09/03 11:55:32;;;;;;;3.28;1.80;;;;;;;;;;5032872;28;20081;-89
2022/09/03 11:58:12;;;;;;;4.07;1.70;;;;;;;;;;5017337;28;20030;-88
2022/09/03 12:00:38;;;;;;;2.40;1.40;;;;;;;;;;4999970;28;20029;-88
2022/09/03 12:03:04;;;;;;;9.05;4.78;;;;;;;;;;5015909;28;20038;-88
2022/09/03 12:05:48;;;;;;;5.78;3.40;;;;;;;;;;5000944;28;20034;-88
2022/09/03 12:08:58;;;;;;;6.03;3.05;;;;;;;;;;5007874;28;20487;-87
2022/09/03 12:11:38;;;;;;;5.03;2.55;;;;;;;;;;5008920;28;20616;-87
2022/09/03 12:14:12;;;;;;;5.97;2.60;;;;;;;;;;5035969;28;20041;-86
2022/09/03 12:16:46;;;;;;;8.10;2.60;;;;;;;;;;5011936;28;20052;-86
2022/09/03 12:19:21;;;;;;;8.70;2.13;;;;;;;;;;5028297;28;20137;-85
2022/09/03 12:21:48;;;;;;;8.63;1.92;;;;;;;;;;5027484;28;20121;-83
2022/09/03 12:24:15;;;;;;;5.85;2.45;;;;;;;;;;4994762;28;20551;-84
2022/09/03 12:26:41;;;;;;;4.18;1.88;;;;;;;;;;5016436;28;20116;-86
2022/09/03 12:29:23;;;;;;;4.20;2.03;;;;;;;;;;4999121;28;20037;-86
2022/09/03 12:31:55;;;;;;;7.82;3.20;;;;;;;;;;4985330;28;20376;-88
2022/09/03 12:34:23;;;;;;;5.38;2.35;;;;;;;;;;4990907;28;20042;-88
2022/09/03 12:36:58;;;;;;;6.15;2.20;;;;;;;;;;4985047;28;20073;-93
2022/09/03 12:39:28;;;;;;;9.02;2.95;;;;;;;;;;5017418;28;20122;-91
2022/09/03 12:42:03;;;;;;;7.72;2.78;;;;;;;;;;4985203;28;20026;-89
2022/09/03 12:44:35;;;;;;;4.90;2.28;;;;;;;;;;5001156;28;20038;-89
2022/09/03 12:47:18;;;;;;;5.65;2.47;;;;;;;;;;5050693;28;20133;-90
2022/09/03 12:49:50;;;;;;;9.95;2.70;;;;;;;;;;5000775;28;20515;-92
2022/09/03 12:52:31;;;;;;;6.55;2.55;;;;;;;;;;5000850;28;20523;-94
2022/09/03 12:55:29;;;;;;;5.93;2.33;;;;;;;;;;5017305;28;20415;-95
2022/09/03 12:58:24;;;;;;;6.65;2.63;;;;;;;;;;5044649;28;20103;-93
2022/09/03 13:00:59;;;;;;;4.95;2.20;;;;;;;;;;5000945;28;20480;-92
2022/09/03 13:03:33;;;;;;;3.22;1.70;;;;;;;;;;5016962;28;20404;-90
2022/09/03 13:06:05;;;;;;;3.38;2.25;;;;;;;;;;5000785;28;20041;-90
2022/09/03 13:08:33;;;;;;;5.57;2.20;;;;;;;;;;5001539;28;20585;-89
2022/09/03 13:11:01;;;;;;;3.30;1.88;;;;;;;;;;5000335;28;20514;-90
2022/09/03 13:13:35;;;;;;;3.63;1.70;;;;;;;;;;5000841;28;20034;-88
2022/09/03 13:16:25;;;;;;;3.75;1.90;;;;;;;;;;4984968;28;20487;-92
2022/09/03 13:19:12;;;;;;;4.43;2.30;;;;;;;;;;5028694;28;20038;-92
2022/09/03 13:22:00;;;;;;;4.40;2.03;;;;;;;;;;4999300;28;20384;-91
2022/09/03 13:24:58;;;;;;;4.38;1.98;;;;;;;;;;4983335;28;20488;-93
2022/09/03 13:27:28;;;;;;;2.75;1.85;;;;;;;;;;4998779;28;20049;-93
2022/09/03 13:30:16;;;;;;;3.72;2.10;;;;;;;;;;5012700;28;20036;-92
2022/09/03 13:33:14;;;;;;;2.80;2.05;;;;;;;;;;4998537;28;20049;-91
2022/09/03 13:35:55;;;;;;;3.78;2.40;;;;;;;;;;4981333;28;20042;-92
2022/09/03 13:38:34;;;;;;;3.38;1.50;;;;;;;;;;4997664;28;20468;-91
2022/09/03 13:41:09;;;;;;;3.63;2.10;;;;;;;;;;5018159;28;20079;-91
2022/09/03 13:43:54;;;;;;;3.05;1.80;;;;;;;;;;5016333;28;20038;-92
2022/09/03 13:46:39;;;;;;;3.50;2.00;;;;;;;;;;4985574;28;20408;-93
2022/09/03 13:52:43;;;;;;;6.80;1.98;;;;;;;;;;5032222;28;20026;-89
2022/09/03 13:55:30;;;;;;;1.73;1.33;;;;;;;;;;5018056;28;20046;-89
2022/09/03 13:58:07;;;;;;;4.80;1.75;;;;;;;;;;5014808;28;20516;-89
2022/09/03 14:00:41;;;;;;;2.92;1.67;;;;;;;;;;4982595;28;20048;-86
2022/09/03 14:03:46;;;;;;;1.77;1.40;;;;;;;;;;4999657;28;20087;-92
2022/09/03 14:06:37;;;;;;;2.10;1.42;;;;;;;;;;5023298;28;20053;-90
2022/09/03 14:09:21;;;;;;;3.20;1.63;;;;;;;;;;5032096;28;20036;-92
2022/09/03 14:12:24;;;;;;;2.45;1.58;;;;;;;;;;5032407;28;20030;-95
2022/09/03 14:15:34;;;;;;;2.55;1.30;;;;;;;;;;5032357;28;20092;-90
2022/09/03 14:22:43;;;;;;;2.45;1.45;;;;;;;;;;5033107;28;20041;-94
2022/09/03 14:25:45;;;;;;;2.85;1.45;;;;;;;;;;5014720;28;20176;-94
2022/09/03 14:28:51;;;;;;;5.70;1.95;;;;;;;;;;5014424;28;20045;-95
2022/09/03 14:50:32;;;;;;;4.30;1.33;;;;;;;;;;5068915;28;20098;-94
2022/09/03 14:54:07;;;;;;;2.20;1.35;;;;;;;;;;5009665;28;20181;-92
2022/09/03 14:57:02;;;;;;;2.25;1.55;;;;;;;;;;4991268;28;20435;-93
2022/09/03 15:00:11;;;;;;;2.35;1.15;;;;;;;;;;5020062;28;20396;-93
2022/09/03 15:03:00;;;;;;;2.45;1.52;;;;;;;;;;4998178;28;20502;-92
2022/09/03 15:05:43;;;;;;;1.85;1.27;;;;;;;;;;4983547;28;20048;-92
2022/09/03 15:08:17;;;;;;;2.08;1.20;;;;;;;;;;4983220;28;20037;-92
2022/09/03 15:10:57;;;;;;;2.85;1.50;;;;;;;;;;5015714;28;20034;-92
2022/09/03 15:13:54;;;;;;;2.38;1.33;;;;;;;;;;4983036;28;20034;-92
2022/09/03 15:16:25;;;;;;;1.80;1.20;;;;;;;;;;4999321;28;20099;-90
2022/09/03 15:19:10;;;;;;;1.88;1.17;;;;;;;;;;4998370;28;20049;-90
2022/09/03 15:22:08;;;;;;;2.45;1.15;;;;;;;;;;4998160;28;20040;-90
2022/09/03 15:24:42;;;;;;;3.28;1.85;;;;;;;;;;5000642;28;20025;-90
2022/09/03 15:27:19;;;;;;;2.75;1.33;;;;;;;;;;4998109;28;20037;-90
2022/09/03 15:29:50;;;;;;;2.88;1.52;;;;;;;;;;4998521;28;20040;-90
2022/09/03 15:32:21;;;;;;;2.08;1.25;;;;;;;;;;4998128;28;20029;-90
2022/09/03 15:35:08;;;;;;;2.63;1.30;;;;;;;;;;4998632;28;20041;-91
2022/09/03 15:37:44;;;;;;;2.55;1.17;;;;;;;;;;4998624;28;20496;-90
2022/09/03 15:40:24;;;;;;;2.55;1.20;;;;;;;;;;4998693;28;20034;-89
2022/09/03 15:42:54;;;;;;;2.83;1.27;;;;;;;;;;5016155;28;20064;-90
2022/09/03 15:45:38;;;;;;;1.58;1.00;;;;;;;;;;5001399;28;20048;-90
2022/09/03 15:48:29;;;;;;;2.03;1.13;;;;;;;;;;5033823;28;20423;-90
2022/09/03 15:51:09;;;;;;;2.00;1.17;;;;;;;;;;4991372;28;20415;-90
2022/09/03 15:54:14;;;;;;;2.45;1.52;;;;;;;;;;5033608;28;20072;-90
2022/09/03 15:56:46;;;;;;;2.00;1.30;;;;;;;;;;5033366;28;20036;-89